Time;durP1;ratioP1;P1;durP2;ratioP2;P2;SDS_P1;SDS_P2;PMS_P1;PMS_P2;Temp;Humidity;BMP_temperature;BMP_pressure;BME280_temperature;BME280_humidity;BME280_pressure;Samples;Min_cycle;Max_cycle;Signal;HPM_P1;HPM_P2
2022/10/24 00:01:34;;;;;;;6.20;2.40;;;16.10;40.10;;;;;;4964873;28;20477;-62
2022/10/24 00:04:00;;;;;;;6.47;1.50;;;16.00;40.10;;;;;;4966913;28;20462;-62
2022/10/24 00:06:27;;;;;;;8.60;2.33;;;16.00;40.20;;;;;;4963627;28;20838;-62
2022/10/24 00:08:54;;;;;;;5.90;1.30;;;16.00;40.40;;;;;;4965405;28;20470;-62
2022/10/24 00:11:23;;;;;;;5.57;2.07;;;16.00;40.60;;;;;;4963994;28;20706;-62
2022/10/24 00:13:51;;;;;;;7.93;1.50;;;15.90;40.80;;;;;;4958521;28;20578;-63
2022/10/24 00:16:19;;;;;;;6.20;1.70;;;15.90;40.40;;;;;;4967126;28;20476;-62
2022/10/24 00:18:47;;;;;;;8.50;1.63;;;15.90;40.60;;;;;;4971456;28;20460;-61
2022/10/24 00:21:14;;;;;;;5.20;1.60;;;15.90;40.50;;;;;;4961015;28;20465;-61
2022/10/24 00:23:41;;;;;;;7.73;1.43;;;15.90;40.60;;;;;;4965756;28;20978;-61
2022/10/24 00:26:09;;;;;;;10.50;1.97;;;15.90;40.80;;;;;;4971449;28;20493;-61
2022/10/24 00:28:36;;;;;;;5.57;1.80;;;15.90;41.10;;;;;;4965733;28;20856;-61
2022/10/24 00:31:03;;;;;;;6.47;2.17;;;15.80;40.70;;;;;;4964945;28;20490;-61
2022/10/24 00:33:30;;;;;;;7.67;1.87;;;15.80;40.70;;;;;;4960516;28;20577;-61
2022/10/24 00:35:59;;;;;;;6.87;1.93;;;15.80;40.60;;;;;;4960927;28;20977;-62
2022/10/24 00:38:25;;;;;;;9.60;2.30;;;15.80;40.80;;;;;;4959743;28;20468;-61
2022/10/24 00:40:52;;;;;;;6.43;2.00;;;15.90;40.70;;;;;;4958750;28;20473;-62
2022/10/24 00:43:22;;;;;;;9.50;1.80;;;15.80;40.70;;;;;;4955966;28;20457;-62
2022/10/24 00:45:53;;;;;;;10.53;1.87;;;15.90;40.90;;;;;;4956514;28;20500;-64
2022/10/24 00:48:25;;;;;;;8.20;1.90;;;15.80;40.80;;;;;;4960106;28;21043;-61
2022/10/24 00:50:56;;;;;;;7.63;2.20;;;15.90;41.00;;;;;;4959704;28;20469;-62
2022/10/24 00:53:26;;;;;;;8.27;2.50;;;15.90;40.70;;;;;;4962371;28;20465;-62
2022/10/24 00:55:56;;;;;;;5.97;1.60;;;15.90;40.80;;;;;;4962176;28;20493;-61
2022/10/24 00:58:27;;;;;;;8.70;2.20;;;16.00;40.50;;;;;;4956828;28;20454;-62
2022/10/24 01:00:54;;;;;;;10.17;1.97;;;16.00;40.60;;;;;;4951403;28;20497;-63
2022/10/24 01:03:21;;;;;;;6.97;2.33;;;15.90;40.60;;;;;;4955357;28;20462;-61
2022/10/24 01:06:13;;;;;;;7.90;2.50;;;15.90;40.70;;;;;;4960994;28;21032;-62
2022/10/24 01:08:47;;;;;;;8.47;2.20;;;15.90;41.10;;;;;;4961123;28;20596;-62
2022/10/24 01:11:28;;;;;;;8.03;2.10;;;15.90;41.00;;;;;;4965661;28;20981;-62
2022/10/24 01:14:02;;;;;;;6.40;2.27;;;15.90;40.80;;;;;;4965222;28;20613;-62
2022/10/24 01:16:38;;;;;;;7.97;2.33;;;16.00;40.60;;;;;;4970992;28;20495;-62
2022/10/24 01:19:19;;;;;;;6.87;1.50;;;16.00;40.70;;;;;;4966454;28;20958;-62
2022/10/24 01:21:52;;;;;;;7.80;2.37;;;16.00;41.20;;;;;;4955498;28;20468;-62
2022/10/24 01:24:36;;;;;;;9.70;2.40;;;16.00;40.40;;;;;;4958891;28;20470;-62
2022/10/24 01:27:28;;;;;;;5.10;1.70;;;16.00;40.40;;;;;;4961856;28;20868;-61
2022/10/24 01:30:08;;;;;;;6.43;1.87;;;16.10;40.50;;;;;;4961029;28;20461;-62
2022/10/24 01:32:41;;;;;;;9.23;1.87;;;16.00;40.80;;;;;;4960499;28;20569;-62
2022/10/24 01:35:20;;;;;;;7.27;1.87;;;16.00;40.90;;;;;;4960897;28;20494;-62
2022/10/24 01:37:53;;;;;;;8.03;2.90;;;15.90;41.10;;;;;;4964969;28;20458;-62
2022/10/24 01:40:26;;;;;;;7.63;2.13;;;15.90;41.30;;;;;;4969607;28;20830;-61
2022/10/24 01:42:55;;;;;;;6.70;2.23;;;15.90;41.40;;;;;;4963285;28;20552;-62
2022/10/24 01:45:28;;;;;;;11.10;2.27;;;15.80;41.20;;;;;;4965635;28;20490;-62
2022/10/24 01:47:59;;;;;;;5.83;2.67;;;15.80;41.20;;;;;;4963571;28;20717;-62
2022/10/24 01:50:28;;;;;;;5.80;2.17;;;15.80;41.30;;;;;;4959451;28;20475;-62
2022/10/24 01:52:57;;;;;;;5.00;2.10;;;15.80;41.20;;;;;;4962170;28;20470;-62
2022/10/24 01:55:24;;;;;;;7.90;2.37;;;15.90;41.20;;;;;;4972534;28;20976;-62
2022/10/24 01:57:51;;;;;;;7.03;2.17;;;15.90;41.10;;;;;;4957301;28;20465;-62
2022/10/24 02:00:19;;;;;;;9.73;2.60;;;15.90;41.20;;;;;;4959325;28;20461;-62
2022/10/24 02:02:52;;;;;;;6.20;2.03;;;15.90;41.10;;;;;;4957963;28;20462;-61
2022/10/24 02:05:22;;;;;;;5.50;1.93;;;15.90;41.20;;;;;;4960002;28;20489;-62
2022/10/24 02:07:52;;;;;;;9.97;2.23;;;15.90;40.90;;;;;;4966215;28;21064;-61
2022/10/24 02:10:25;;;;;;;7.10;1.70;;;15.90;40.90;;;;;;4965038;28;20461;-62
2022/10/24 02:12:56;;;;;;;5.83;1.80;;;15.90;40.80;;;;;;4965920;28;20457;-61
2022/10/24 02:15:26;;;;;;;8.70;2.70;;;15.90;40.90;;;;;;4972127;28;20799;-62
2022/10/24 02:17:56;;;;;;;8.93;2.00;;;15.90;40.90;;;;;;4972871;28;20581;-62
2022/10/24 02:20:28;;;;;;;8.57;2.00;;;15.90;40.70;;;;;;4966907;28;20461;-62
2022/10/24 02:23:00;;;;;;;7.73;2.30;;;15.90;40.70;;;;;;4964759;28;20477;-62
2022/10/24 02:25:31;;;;;;;6.67;2.20;;;15.90;40.80;;;;;;4967657;28;20493;-62
2022/10/24 02:28:05;;;;;;;8.80;2.67;;;15.90;40.60;;;;;;4964801;28;21036;-62
2022/10/24 02:30:35;;;;;;;10.87;2.40;;;15.90;40.60;;;;;;4970350;28;20478;-63
2022/10/24 02:33:03;;;;;;;8.20;2.10;;;15.90;40.50;;;;;;4968087;28;20468;-62
2022/10/24 02:35:35;;;;;;;9.03;2.70;;;16.00;40.40;;;;;;4967165;28;20545;-61
2022/10/24 02:38:08;;;;;;;9.67;2.37;;;16.00;40.20;;;;;;4966004;28;20461;-62
2022/10/24 02:40:36;;;;;;;8.40;2.23;;;16.00;40.10;;;;;;4962270;28;20479;-62
2022/10/24 02:43:05;;;;;;;8.20;2.40;;;16.00;40.10;;;;;;4965940;28;20886;-62
2022/10/24 02:45:34;;;;;;;10.67;1.93;;;16.00;39.90;;;;;;4968470;28;20492;-62
2022/10/24 02:48:08;;;;;;;6.00;2.30;;;16.00;39.90;;;;;;4971234;28;20488;-62
2022/10/24 02:50:36;;;;;;;7.63;2.10;;;16.00;40.10;;;;;;4968241;28;20698;-62
2022/10/24 02:53:04;;;;;;;10.90;3.87;;;16.00;40.20;;;;;;4969378;28;20580;-62
2022/10/24 02:55:30;;;;;;;13.10;3.27;;;16.00;40.20;;;;;;4966477;28;20481;-61
2022/10/24 02:57:57;;;;;;;7.60;2.03;;;16.00;40.30;;;;;;4963955;28;20458;-62
2022/10/24 03:00:24;;;;;;;7.37;2.30;;;16.00;40.40;;;;;;4957915;28;20493;-62
2022/10/24 03:02:51;;;;;;;8.33;2.10;;;16.00;40.10;;;;;;4961297;28;20470;-62
2022/10/24 03:05:19;;;;;;;10.87;2.83;;;16.00;40.20;;;;;;4961190;28;20844;-62
2022/10/24 03:07:46;;;;;;;8.40;2.43;;;15.90;40.20;;;;;;4964914;28;20514;-62
2022/10/24 03:10:13;;;;;;;7.20;2.60;;;16.00;40.20;;;;;;4966576;28;20476;-62
2022/10/24 03:12:40;;;;;;;7.40;1.97;;;16.00;40.30;;;;;;4956163;28;20465;-62
2022/10/24 03:15:08;;;;;;;8.90;2.63;;;15.90;40.40;;;;;;4962130;28;20486;-64
2022/10/24 03:17:35;;;;;;;10.90;2.47;;;16.00;40.40;;;;;;4961372;28;20473;-62
2022/10/24 03:20:02;;;;;;;8.53;2.57;;;16.00;40.40;;;;;;4965845;28;20968;-62
2022/10/24 03:22:30;;;;;;;10.50;2.37;;;16.00;40.40;;;;;;4963653;28;20461;-62
2022/10/24 03:25:00;;;;;;;8.47;2.20;;;16.00;40.40;;;;;;4965896;28;20465;-62
2022/10/24 03:27:27;;;;;;;12.50;2.63;;;16.00;40.40;;;;;;4958575;28;20540;-62
2022/10/24 03:29:54;;;;;;;10.13;2.50;;;16.00;40.60;;;;;;4964513;28;20596;-62
2022/10/24 03:32:21;;;;;;;7.97;2.50;;;16.00;40.50;;;;;;4961670;28;20492;-62
2022/10/24 03:34:48;;;;;;;6.90;2.30;;;15.90;40.60;;;;;;4963774;28;20490;-63
2022/10/24 03:37:15;;;;;;;7.40;2.43;;;16.00;40.70;;;;;;4958727;28;20470;-62
2022/10/24 03:39:43;;;;;;;9.90;3.13;;;15.90;40.80;;;;;;4966818;28;20545;-62
2022/10/24 03:42:10;;;;;;;11.77;2.30;;;15.90;40.80;;;;;;4954794;28;20470;-62
2022/10/24 03:44:37;;;;;;;9.67;2.60;;;16.00;40.80;;;;;;4963335;28;20903;-63
2022/10/24 03:47:03;;;;;;;8.43;2.50;;;16.00;40.90;;;;;;4961042;28;20509;-62
2022/10/24 03:49:31;;;;;;;7.73;2.73;;;16.00;40.80;;;;;;4962227;28;20486;-62
2022/10/24 03:51:58;;;;;;;7.53;2.90;;;15.90;41.30;;;;;;4959447;28;20549;-62
2022/10/24 03:54:25;;;;;;;12.63;2.80;;;15.90;41.40;;;;;;4961630;28;20721;-62
2022/10/24 03:56:53;;;;;;;8.87;2.50;;;16.00;41.30;;;;;;4963054;28;20946;-62
2022/10/24 03:59:20;;;;;;;7.53;2.43;;;15.90;41.40;;;;;;4962747;28;20460;-62
2022/10/24 04:01:46;;;;;;;8.70;2.57;;;16.00;41.50;;;;;;4951026;28;20482;-61
2022/10/24 04:04:13;;;;;;;11.23;3.70;;;16.00;41.60;;;;;;4961460;28;20461;-62
2022/10/24 04:06:41;;;;;;;5.87;2.30;;;15.90;41.90;;;;;;4959763;28;20837;-63
2022/10/24 04:09:08;;;;;;;7.73;2.70;;;15.90;42.00;;;;;;4960966;28;20489;-62
2022/10/24 04:11:35;;;;;;;8.50;2.80;;;15.90;42.20;;;;;;4960492;28;20462;-63
2022/10/24 04:14:04;;;;;;;10.93;2.90;;;15.90;42.10;;;;;;4962048;28;20991;-63
2022/10/24 04:16:32;;;;;;;11.23;2.40;;;15.90;42.50;;;;;;4959269;28;20482;-63
2022/10/24 04:18:59;;;;;;;11.50;3.10;;;15.90;42.70;;;;;;4955049;28;21040;-63
2022/10/24 04:21:26;;;;;;;11.03;3.23;;;15.90;42.60;;;;;;4959227;28;20922;-63
2022/10/24 04:23:53;;;;;;;11.70;2.90;;;15.90;42.90;;;;;;4962890;28;20970;-63
2022/10/24 04:26:20;;;;;;;12.63;3.83;;;15.90;43.00;;;;;;4961621;28;20485;-64
2022/10/24 04:28:47;;;;;;;10.50;3.17;;;15.90;43.20;;;;;;4966379;28;20478;-63
2022/10/24 04:31:16;;;;;;;9.03;2.53;;;15.80;43.00;;;;;;4954821;28;20474;-64
2022/10/24 04:33:42;;;;;;;9.80;2.53;;;15.90;43.00;;;;;;4962395;28;21429;-64
2022/10/24 04:36:09;;;;;;;7.40;2.63;;;15.80;43.00;;;;;;4958534;28;21040;-62
2022/10/24 04:38:36;;;;;;;8.00;3.17;;;15.80;43.20;;;;;;4961904;28;20462;-63
2022/10/24 04:41:03;;;;;;;6.73;2.27;;;15.80;43.10;;;;;;4961310;28;20469;-64
2022/10/24 04:43:30;;;;;;;9.93;2.90;;;15.80;43.00;;;;;;4962090;28;20478;-62
2022/10/24 04:45:56;;;;;;;9.10;3.13;;;15.80;42.90;;;;;;4961485;28;20485;-62
2022/10/24 04:48:25;;;;;;;10.37;3.37;;;15.80;42.80;;;;;;4954037;28;20494;-62
2022/10/24 04:50:51;;;;;;;11.53;3.00;;;15.80;43.00;;;;;;4964992;28;20671;-64
2022/10/24 04:53:18;;;;;;;9.80;3.37;;;15.80;43.00;;;;;;4959241;28;20470;-64
2022/10/24 04:55:45;;;;;;;10.80;2.90;;;15.80;43.00;;;;;;4960781;28;20493;-65
2022/10/24 04:58:12;;;;;;;14.70;4.10;;;15.80;43.00;;;;;;4962696;28;20473;-63
2022/10/24 05:00:38;;;;;;;7.63;3.03;;;15.80;43.10;;;;;;4961942;28;20497;-64
2022/10/24 05:03:05;;;;;;;8.03;2.17;;;15.80;43.00;;;;;;4961411;28;20461;-62
2022/10/24 05:05:33;;;;;;;7.17;2.03;;;15.80;42.60;;;;;;4961593;28;20486;-61
2022/10/24 05:08:00;;;;;;;11.83;3.47;;;15.80;42.70;;;;;;4962949;28;20561;-63
2022/10/24 05:10:27;;;;;;;8.17;2.13;;;15.80;42.10;;;;;;4964338;28;20524;-64
2022/10/24 05:12:54;;;;;;;8.03;2.93;;;15.80;41.90;;;;;;4960237;28;20461;-62
2022/10/24 05:15:20;;;;;;;8.97;2.60;;;15.80;42.10;;;;;;4964634;28;20493;-62
2022/10/24 05:17:48;;;;;;;7.27;2.47;;;15.80;41.90;;;;;;4964230;28;20477;-63
2022/10/24 05:20:16;;;;;;;7.70;2.37;;;15.80;42.20;;;;;;4954038;28;20485;-62
2022/10/24 05:22:44;;;;;;;10.43;2.43;;;15.80;42.10;;;;;;4964734;28;20462;-66
2022/10/24 05:25:11;;;;;;;10.03;2.70;;;15.80;42.50;;;;;;4961169;28;20489;-67
2022/10/24 05:27:38;;;;;;;9.30;2.30;;;15.80;42.40;;;;;;4964774;28;20480;-67
2022/10/24 05:30:06;;;;;;;7.20;2.67;;;15.80;42.30;;;;;;4961479;28;20477;-67
2022/10/24 05:32:33;;;;;;;6.83;1.80;;;15.80;42.40;;;;;;4957612;28;20474;-67
2022/10/24 05:34:59;;;;;;;20.80;3.60;;;15.80;42.30;;;;;;4957647;28;20466;-66
2022/10/24 05:37:26;;;;;;;6.60;2.20;;;15.80;42.50;;;;;;4962497;28;20471;-68
2022/10/24 05:39:54;;;;;;;6.00;1.80;;;15.70;42.50;;;;;;4958604;28;20458;-65
2022/10/24 05:42:21;;;;;;;5.87;1.67;;;15.70;42.70;;;;;;4959084;28;20476;-70
2022/10/24 05:44:48;;;;;;;13.17;2.63;;;15.80;42.20;;;;;;4958656;28;20463;-70
2022/10/24 05:47:15;;;;;;;8.20;2.10;;;15.80;42.40;;;;;;4959783;28;21005;-66
2022/10/24 05:49:42;;;;;;;5.73;2.13;;;15.70;42.40;;;;;;4964346;28;20494;-67
2022/10/24 05:52:08;;;;;;;11.63;2.10;;;15.70;42.20;;;;;;4959438;28;21207;-65
2022/10/24 05:54:35;;;;;;;8.27;2.50;;;15.70;42.10;;;;;;4963363;28;21000;-65
2022/10/24 05:57:03;;;;;;;8.57;2.20;;;15.70;42.40;;;;;;4960769;28;20486;-65
2022/10/24 05:59:30;;;;;;;12.13;2.47;;;15.70;42.70;;;;;;4952375;28;20797;-64
2022/10/24 06:01:57;;;;;;;7.57;2.30;;;15.70;42.80;;;;;;4950797;28;20556;-65
2022/10/24 06:04:24;;;;;;;10.73;2.70;;;15.60;42.90;;;;;;4953990;28;20473;-63
2022/10/24 06:06:51;;;;;;;8.40;2.23;;;15.60;42.80;;;;;;4952804;28;20481;-64
2022/10/24 06:09:17;;;;;;;12.30;2.87;;;15.60;42.90;;;;;;4953388;28;20512;-64
2022/10/24 06:11:44;;;;;;;12.67;2.87;;;15.70;42.80;;;;;;4949614;28;20936;-65
2022/10/24 06:14:12;;;;;;;8.73;3.97;;;15.70;42.30;;;;;;4953175;28;20935;-65
2022/10/24 06:16:40;;;;;;;9.13;2.10;;;15.70;42.30;;;;;;4948173;28;20754;-66
2022/10/24 06:19:06;;;;;;;11.80;4.30;;;15.70;42.30;;;;;;4957312;28;20615;-66
2022/10/24 06:21:33;;;;;;;7.27;2.23;;;15.70;42.30;;;;;;4954238;28;20466;-65
2022/10/24 06:24:00;;;;;;;8.57;2.73;;;15.70;42.30;;;;;;4955424;28;20986;-63
2022/10/24 06:26:27;;;;;;;8.20;2.10;;;15.70;42.00;;;;;;4952043;28;20481;-64
2022/10/24 06:28:55;;;;;;;8.23;3.20;;;15.70;42.40;;;;;;4955373;28;20627;-64
2022/10/24 06:31:24;;;;;;;9.80;3.70;;;15.70;42.50;;;;;;4956355;28;20961;-64
2022/10/24 06:33:52;;;;;;;9.93;3.13;;;15.70;42.50;;;;;;4954451;28;20469;-64
2022/10/24 06:36:19;;;;;;;10.93;2.43;;;15.70;42.50;;;;;;4954655;28;20839;-64
2022/10/24 06:38:47;;;;;;;7.23;2.10;;;15.70;42.60;;;;;;4957383;28;20469;-64
2022/10/24 06:41:15;;;;;;;7.10;2.17;;;15.70;42.70;;;;;;4957975;28;20803;-63
2022/10/24 06:43:43;;;;;;;9.13;2.50;;;15.70;42.80;;;;;;4953959;28;20512;-64
2022/10/24 06:46:13;;;;;;;7.30;1.93;;;15.70;42.90;;;;;;4953715;28;20987;-64
2022/10/24 06:48:41;;;;;;;9.90;2.77;;;15.70;42.80;;;;;;4953802;28;20552;-64
2022/10/24 06:51:08;;;;;;;9.63;2.83;;;15.70;43.00;;;;;;4951847;28;20467;-66
2022/10/24 06:53:35;;;;;;;6.90;2.40;;;15.70;43.20;;;;;;4957812;28;20462;-65
2022/10/24 06:56:06;;;;;;;14.10;2.87;;;15.70;43.20;;;;;;4955932;28;20484;-67
2022/10/24 06:58:33;;;;;;;8.70;2.37;;;15.70;43.10;;;;;;4949926;28;20458;-63
2022/10/24 07:01:00;;;;;;;6.60;2.37;;;15.70;43.40;;;;;;4962000;28;21024;-65
2022/10/24 07:03:27;;;;;;;8.60;2.50;;;15.70;43.40;;;;;;4955583;28;20498;-64
2022/10/24 07:05:55;;;;;;;8.27;2.20;;;15.70;43.20;;;;;;4958231;28;20569;-68
2022/10/24 07:08:22;;;;;;;8.87;2.63;;;15.70;43.20;;;;;;4963240;28;20462;-72
2022/10/24 07:10:48;;;;;;;7.43;2.43;;;15.70;43.00;;;;;;4951068;28;20485;-62
2022/10/24 07:13:15;;;;;;;9.40;2.83;;;15.70;43.00;;;;;;4960526;28;20461;-68
2022/10/24 07:15:42;;;;;;;8.37;2.03;;;15.70;43.10;;;;;;4957565;28;20481;-66
2022/10/24 07:18:14;;;;;;;9.63;2.50;;;15.70;43.10;;;;;;4960059;28;20457;-65
2022/10/24 07:20:41;;;;;;;5.30;2.20;;;15.80;43.10;;;;;;4960661;28;20473;-65
2022/10/24 07:23:10;;;;;;;9.23;2.27;;;15.80;43.00;;;;;;4963657;28;20471;-70
2022/10/24 07:25:38;;;;;;;8.93;2.20;;;15.80;43.10;;;;;;4964447;28;21032;-67
2022/10/24 07:28:05;;;;;;;8.20;2.40;;;15.80;43.10;;;;;;4965489;28;20490;-65
2022/10/24 07:30:32;;;;;;;9.63;2.70;;;15.90;42.90;;;;;;4958529;28;20497;-67
2022/10/24 07:32:59;;;;;;;11.40;3.37;;;15.90;43.00;;;;;;4963061;28;20556;-65
2022/10/24 07:35:26;;;;;;;8.60;3.20;;;16.00;42.20;;;;;;4959977;28;20580;-66
2022/10/24 07:37:53;;;;;;;9.00;3.27;;;16.00;41.90;;;;;;4957424;28;20477;-65
2022/10/24 07:40:21;;;;;;;11.20;3.20;;;16.10;41.80;;;;;;4963798;28;20516;-62
2022/10/24 07:42:48;;;;;;;10.53;3.80;;;16.10;41.80;;;;;;4964480;28;20473;-63
2022/10/24 07:45:15;;;;;;;12.67;4.90;;;16.10;41.90;;;;;;4959767;28;20497;-66
2022/10/24 07:47:42;;;;;;;11.10;3.27;;;16.10;41.90;;;;;;4963222;28;20549;-63
2022/10/24 07:50:09;;;;;;;10.37;3.40;;;16.10;41.90;;;;;;4956552;28;20575;-66
2022/10/24 07:52:36;;;;;;;6.43;2.60;;;16.00;41.90;;;;;;4959236;28;20462;-66
2022/10/24 07:55:03;;;;;;;9.13;2.23;;;16.00;43.00;;;;;;4964403;28;20758;-67
2022/10/24 07:57:31;;;;;;;15.27;2.37;;;16.00;42.30;;;;;;4956215;28;20463;-63
2022/10/24 07:59:57;;;;;;;7.40;2.70;;;16.00;42.50;;;;;;4963631;28;20554;-68
2022/10/24 08:02:24;;;;;;;13.17;3.57;;;15.90;42.90;;;;;;4955714;28;20489;-67
2022/10/24 08:04:51;;;;;;;10.30;2.70;;;15.90;43.20;;;;;;4965554;28;20462;-68
2022/10/24 08:07:18;;;;;;;8.13;3.00;;;16.00;43.20;;;;;;4964204;28;20499;-69
2022/10/24 08:09:49;;;;;;;11.37;3.03;;;15.90;43.40;;;;;;4963608;28;20493;-66
2022/10/24 08:12:16;;;;;;;7.00;2.80;;;16.00;42.90;;;;;;4955435;28;20472;-68
2022/10/24 08:14:44;;;;;;;7.90;3.43;;;16.00;42.70;;;;;;4960829;28;21174;-66
2022/10/24 08:17:11;;;;;;;8.60;2.60;;;16.00;42.60;;;;;;4962497;28;21002;-66
2022/10/24 08:19:40;;;;;;;8.70;3.50;;;16.10;42.60;;;;;;4960018;28;20469;-65
2022/10/24 08:22:08;;;;;;;8.70;2.80;;;16.10;42.60;;;;;;4960049;28;20474;-67
2022/10/24 08:24:35;;;;;;;8.57;2.30;;;16.20;42.40;;;;;;4957919;28;21002;-70
2022/10/24 08:27:02;;;;;;;9.87;2.73;;;16.20;42.30;;;;;;4960778;28;20485;-62
2022/10/24 08:29:28;;;;;;;9.67;2.60;;;16.20;42.30;;;;;;4960664;28;20535;-67
2022/10/24 08:31:57;;;;;;;8.43;2.60;;;16.30;42.40;;;;;;4963537;28;20505;-64
2022/10/24 08:34:24;;;;;;;7.67;2.87;;;16.30;42.30;;;;;;4958254;28;20958;-69
2022/10/24 08:36:51;;;;;;;7.23;2.13;;;16.30;42.10;;;;;;4960767;28;20520;-70
2022/10/24 08:39:18;;;;;;;7.90;2.40;;;16.40;42.00;;;;;;4958061;28;20765;-66
2022/10/24 08:41:49;;;;;;;5.97;2.30;;;16.50;41.80;;;;;;4962704;28;20463;-63
2022/10/24 08:44:22;;;;;;;9.13;2.33;;;16.70;41.50;;;;;;4965190;28;20462;-70
2022/10/24 08:46:54;;;;;;;7.60;2.23;;;17.10;40.00;;;;;;4962346;28;22034;-66
2022/10/24 08:49:36;;;;;;;10.73;2.30;;;17.30;38.10;;;;;;4964133;28;20480;-66
2022/10/24 08:52:12;;;;;;;9.10;2.47;;;17.40;37.90;;;;;;4960770;28;20864;-67
2022/10/24 08:54:42;;;;;;;7.47;1.87;;;17.30;37.70;;;;;;4963476;28;20958;-71
2022/10/24 08:57:17;;;;;;;8.87;2.37;;;17.30;37.80;;;;;;4962951;28;20481;-68
2022/10/24 08:59:44;;;;;;;7.80;2.83;;;17.20;37.30;;;;;;4959537;28;20480;-69
2022/10/24 09:02:18;;;;;;;8.97;2.50;;;17.20;37.80;;;;;;4960980;28;20870;-67
2022/10/24 09:04:52;;;;;;;5.37;1.80;;;17.20;37.90;;;;;;4958092;28;20555;-67
2022/10/24 09:07:22;;;;;;;7.37;2.10;;;17.10;37.60;;;;;;4958290;28;20599;-66
2022/10/24 09:09:51;;;;;;;5.40;2.30;;;17.10;38.00;;;;;;4958128;28;20854;-68
2022/10/24 09:12:20;;;;;;;7.83;2.80;;;17.10;38.30;;;;;;4961444;28;20485;-67
2022/10/24 09:14:53;;;;;;;6.57;2.37;;;17.00;38.70;;;;;;4959989;28;20564;-68
2022/10/24 09:17:23;;;;;;;7.67;2.00;;;17.00;38.80;;;;;;4961253;28;20624;-66
2022/10/24 09:19:54;;;;;;;5.90;2.10;;;17.00;39.10;;;;;;4954529;28;20549;-67
2022/10/24 09:22:22;;;;;;;6.77;2.50;;;17.00;39.30;;;;;;4956363;28;20466;-65
2022/10/24 09:24:55;;;;;;;7.73;1.90;;;17.00;39.20;;;;;;4950842;28;20473;-66
2022/10/24 09:27:24;;;;;;;8.30;2.13;;;17.00;39.10;;;;;;4957629;28;20474;-67
2022/10/24 09:29:52;;;;;;;7.57;1.63;;;17.00;39.00;;;;;;4956114;28;20655;-66
2022/10/24 09:32:21;;;;;;;8.00;2.17;;;17.00;38.80;;;;;;4961472;28;20485;-69
2022/10/24 09:34:48;;;;;;;9.97;2.30;;;17.00;39.00;;;;;;4957977;28;20501;-68
2022/10/24 09:37:38;;;;;;;6.63;1.60;;;16.90;39.00;;;;;;4950869;28;20486;-65
2022/10/24 09:40:17;;;;;;;7.30;2.33;;;16.90;39.20;;;;;;4959411;28;20822;-66
2022/10/24 09:42:50;;;;;;;14.67;2.33;;;16.90;39.20;;;;;;4959139;28;20481;-66
2022/10/24 09:45:34;;;;;;;8.37;2.23;;;16.90;39.40;;;;;;4955526;28;20489;-76
2022/10/24 09:48:04;;;;;;;9.83;3.10;;;16.90;39.60;;;;;;4958825;28;20757;-66
2022/10/24 09:50:34;;;;;;;7.53;2.57;;;16.90;39.60;;;;;;4956151;28;20688;-72
2022/10/24 09:53:03;;;;;;;9.47;3.17;;;16.90;39.70;;;;;;4956952;28;20494;-68
2022/10/24 09:55:30;;;;;;;6.90;2.63;;;16.90;39.60;;;;;;4953701;28;20484;-68
2022/10/24 09:58:04;;;;;;;7.20;2.70;;;16.90;39.40;;;;;;4956288;28;20461;-66
2022/10/24 10:00:33;;;;;;;12.87;3.10;;;16.90;39.60;;;;;;4959011;28;20457;-72
2022/10/24 10:03:05;;;;;;;9.80;3.40;;;16.80;39.70;;;;;;4956403;28;20477;-65
2022/10/24 10:05:46;;;;;;;11.70;2.27;;;16.80;40.00;;;;;;4963057;28;20625;-66
2022/10/24 10:08:20;;;;;;;7.53;2.20;;;16.70;40.10;;;;;;4956337;28;20469;-65
2022/10/24 10:10:57;;;;;;;9.13;3.00;;;16.70;40.20;;;;;;4955645;28;20604;-66
2022/10/24 10:13:26;;;;;;;13.60;2.70;;;16.70;40.40;;;;;;4951227;28;20517;-67
2022/10/24 10:15:55;;;;;;;9.13;2.73;;;16.60;40.50;;;;;;4962171;28;20492;-67
2022/10/24 10:18:28;;;;;;;6.30;2.60;;;16.60;41.00;;;;;;4959146;28;20476;-64
2022/10/24 10:21:05;;;;;;;7.40;1.90;;;16.50;41.10;;;;;;4962134;28;20472;-66
2022/10/24 10:23:36;;;;;;;12.03;2.70;;;16.50;41.00;;;;;;4958038;28;20458;-64
2022/10/24 10:26:07;;;;;;;7.63;1.90;;;16.40;41.20;;;;;;4959970;28;20488;-62
2022/10/24 10:28:41;;;;;;;10.60;2.60;;;16.40;41.00;;;;;;4962346;28;20549;-62
2022/10/24 10:31:10;;;;;;;6.20;1.80;;;16.40;42.10;;;;;;4959377;28;20491;-64
2022/10/24 10:33:45;;;;;;;6.80;1.53;;;16.30;41.40;;;;;;4952765;28;21531;-64
2022/10/24 10:36:17;;;;;;;5.20;2.17;;;16.30;41.50;;;;;;4961722;28;21056;-64
2022/10/24 10:38:51;;;;;;;11.17;3.37;;;16.20;41.60;;;;;;4957183;28;20989;-64
2022/10/24 10:41:37;;;;;;;11.20;2.53;;;16.20;41.70;;;;;;4957462;28;20450;-65
2022/10/24 10:44:20;;;;;;;8.53;2.20;;;16.20;41.80;;;;;;4962106;28;21068;-64
2022/10/24 10:46:56;;;;;;;7.50;2.07;;;16.10;42.00;;;;;;4960794;28;20482;-64
2022/10/24 10:49:28;;;;;;;6.50;1.77;;;16.10;41.90;;;;;;4957642;28;20483;-64
2022/10/24 10:51:58;;;;;;;5.13;1.60;;;16.10;42.00;;;;;;4955731;28;20969;-64
2022/10/24 10:54:48;;;;;;;8.53;2.53;;;16.10;42.30;;;;;;4957778;28;21053;-64
2022/10/24 10:57:19;;;;;;;7.03;1.83;;;16.00;42.30;;;;;;4945008;28;20924;-62
2022/10/24 10:59:56;;;;;;;5.50;1.63;;;16.10;42.20;;;;;;4957755;28;20555;-62
2022/10/24 11:02:40;;;;;;;5.43;1.60;;;16.00;42.40;;;;;;4952597;28;20481;-70
2022/10/24 11:05:23;;;;;;;5.17;1.73;;;16.00;42.40;;;;;;4959680;28;20493;-72
2022/10/24 11:07:57;;;;;;;6.63;1.83;;;16.00;42.20;;;;;;4953621;28;20477;-70
2022/10/24 11:10:32;;;;;;;10.20;2.10;;;16.10;41.10;;;;;;4958901;28;20589;-71
2022/10/24 11:13:06;;;;;;;8.10;2.00;;;16.10;41.60;;;;;;4963306;28;20535;-71
2022/10/24 11:15:37;;;;;;;5.47;1.40;;;16.10;41.20;;;;;;4956850;28;20500;-72
2022/10/24 11:18:09;;;;;;;8.27;1.80;;;16.10;41.00;;;;;;4958649;28;20457;-71
2022/10/24 11:20:40;;;;;;;6.37;1.87;;;16.10;40.90;;;;;;4959480;28;20918;-70
2022/10/24 11:23:15;;;;;;;5.83;1.80;;;16.10;41.10;;;;;;4964943;28;20567;-70
2022/10/24 11:25:49;;;;;;;7.90;2.03;;;16.00;41.10;;;;;;4960001;28;20585;-70
2022/10/24 11:28:22;;;;;;;5.60;1.90;;;16.00;40.90;;;;;;4963790;28;20995;-70
2022/10/24 11:30:53;;;;;;;5.70;2.07;;;16.00;40.90;;;;;;4957945;28;20533;-70
2022/10/24 11:33:23;;;;;;;7.10;1.97;;;16.00;40.90;;;;;;4958504;28;20474;-70
2022/10/24 11:36:07;;;;;;;6.03;1.70;;;16.00;41.00;;;;;;4962057;28;20516;-69
2022/10/24 11:38:40;;;;;;;6.27;1.90;;;15.90;41.40;;;;;;4958780;28;20469;-71
2022/10/24 11:41:39;;;;;;;5.20;2.43;;;15.90;41.70;;;;;;4955458;28;20462;-70
2022/10/24 11:44:18;;;;;;;4.80;1.63;;;16.00;41.60;;;;;;4946713;28;20837;-71
2022/10/24 11:46:51;;;;;;;6.80;1.73;;;16.00;41.40;;;;;;4963004;28;20485;-68
2022/10/24 11:49:23;;;;;;;9.13;2.77;;;16.10;42.00;;;;;;4960119;28;20472;-69
2022/10/24 11:51:54;;;;;;;6.53;1.70;;;16.20;41.90;;;;;;4955261;28;20903;-70
2022/10/24 11:54:25;;;;;;;5.97;2.03;;;16.30;41.80;;;;;;4956868;28;21002;-69
2022/10/24 11:56:58;;;;;;;6.47;1.73;;;16.30;40.60;;;;;;4955472;28;20513;-70
2022/10/24 11:59:25;;;;;;;5.67;1.33;;;16.40;40.80;;;;;;4958384;28;20462;-69
2022/10/24 12:02:15;;;;;;;6.43;1.53;;;16.40;40.80;;;;;;4955183;28;20481;-69
2022/10/24 12:05:10;;;;;;;6.00;1.97;;;16.40;40.40;;;;;;4962620;28;20539;-68
2022/10/24 12:08:08;;;;;;;6.50;1.47;;;16.40;40.20;;;;;;4949753;28;20468;-69
2022/10/24 12:10:53;;;;;;;6.87;1.90;;;16.30;39.90;;;;;;4960806;28;20463;-69
2022/10/24 12:13:49;;;;;;;4.90;1.60;;;16.30;40.20;;;;;;4959521;28;20575;-69
2022/10/24 12:16:25;;;;;;;5.53;1.67;;;16.20;40.10;;;;;;4959622;28;20595;-69
2022/10/24 12:18:58;;;;;;;5.93;1.77;;;16.20;39.70;;;;;;4953150;28;20466;-69
2022/10/24 12:21:33;;;;;;;6.73;1.50;;;16.20;39.90;;;;;;4953161;28;20486;-70
2022/10/24 12:24:01;;;;;;;4.23;1.57;;;16.20;40.00;;;;;;4955416;28;20469;-68
2022/10/24 12:26:30;;;;;;;5.20;1.67;;;16.10;39.50;;;;;;4956139;28;20522;-67
2022/10/24 12:28:59;;;;;;;5.83;1.47;;;16.10;39.50;;;;;;4959153;28;20461;-66
2022/10/24 12:31:29;;;;;;;6.20;1.57;;;16.10;39.10;;;;;;4956418;28;21830;-66
2022/10/24 12:34:43;;;;;;;5.80;1.50;;;16.10;39.50;;;;;;4959683;28;20767;-72
2022/10/24 12:37:30;;;;;;;5.70;1.50;;;16.10;39.30;;;;;;4957388;28;20496;-70
2022/10/24 12:39:57;;;;;;;5.23;1.60;;;16.00;39.00;;;;;;4956251;28;20476;-68
2022/10/24 12:42:57;;;;;;;6.10;1.73;;;16.10;39.30;;;;;;4961635;28;20465;-67
2022/10/24 12:45:29;;;;;;;7.07;1.80;;;16.10;39.40;;;;;;4959964;28;20481;-69
2022/10/24 12:48:30;;;;;;;7.23;1.63;;;16.20;39.20;;;;;;4960307;28;20966;-69
2022/10/24 12:51:00;;;;;;;6.40;1.83;;;16.40;39.30;;;;;;4878449;29;20587;-66
2022/10/24 12:53:56;;;;;;;5.90;1.70;;;16.30;39.50;;;;;;4882351;29;21473;-66
2022/10/24 12:56:23;;;;;;;5.90;1.50;;;16.30;39.80;;;;;;4934400;28;20493;-65
2022/10/24 12:59:11;;;;;;;5.17;1.80;;;16.40;39.40;;;;;;4956471;28;20481;-69
2022/10/24 13:01:40;;;;;;;5.27;1.87;;;16.50;39.50;;;;;;4961695;28;20496;-67
2022/10/24 13:04:39;;;;;;;8.17;2.50;;;16.60;39.20;;;;;;4956788;28;20485;-68